Terminal Aerodrome Forecast
Issued by NWS Cleveland, OH

Home | Current Version | Previous Version | Graphics & Text | Print | Product List | Glossary On
Versions: 1 2 3 4 5 6 7 8 9 10 11 12 13 14 15 16 17 18 19 20 21 22
504
FTUS41 KCLE 172337
TAFTOL
TAF
KTOL 172337Z 1800/1824 25012KT P6SM OVC007
     FM181400 26012KT 4SM BR OVC007
     FM181700 26010KT P6SM OVC015
     FM182300 24007KT P6SM OVC035=

USA.gov is the U.S. government's official web portal to all federal, state and local government web resources and services.